sensor_id;sensor_type;location;lat;lon;timestamp;P1;durP1;ratioP1;P2;durP2;ratioP2
20511;SDS011;10414;52.074;5.126;2024-02-26T00:01:50;6.20;;;3.05;;
20511;SDS011;10414;52.074;5.126;2024-02-26T00:04:19;7.00;;;2.63;;
20511;SDS011;10414;52.074;5.126;2024-02-26T00:06:46;6.35;;;2.80;;
20511;SDS011;10414;52.074;5.126;2024-02-26T00:09:15;8.52;;;2.60;;
20511;SDS011;10414;52.074;5.126;2024-02-26T00:11:42;7.10;;;3.20;;
20511;SDS011;10414;52.074;5.126;2024-02-26T00:14:09;6.57;;;2.90;;
20511;SDS011;10414;52.074;5.126;2024-02-26T00:16:36;6.38;;;3.08;;
20511;SDS011;10414;52.074;5.126;2024-02-26T00:19:05;6.50;;;3.03;;
20511;SDS011;10414;52.074;5.126;2024-02-26T00:21:34;5.28;;;3.17;;
20511;SDS011;10414;52.074;5.126;2024-02-26T00:24:00;7.28;;;3.40;;
20511;SDS011;10414;52.074;5.126;2024-02-26T00:26:27;6.32;;;3.13;;
20511;SDS011;10414;52.074;5.126;2024-02-26T00:28:54;6.00;;;2.90;;
20511;SDS011;10414;52.074;5.126;2024-02-26T00:31:21;6.57;;;3.35;;
20511;SDS011;10414;52.074;5.126;2024-02-26T00:33:48;6.88;;;3.13;;
20511;SDS011;10414;52.074;5.126;2024-02-26T00:36:14;5.40;;;2.83;;
20511;SDS011;10414;52.074;5.126;2024-02-26T00:38:42;5.43;;;2.80;;
20511;SDS011;10414;52.074;5.126;2024-02-26T00:41:11;7.63;;;3.17;;
20511;SDS011;10414;52.074;5.126;2024-02-26T00:43:38;7.13;;;3.05;;
20511;SDS011;10414;52.074;5.126;2024-02-26T00:46:05;5.65;;;3.00;;
20511;SDS011;10414;52.074;5.126;2024-02-26T00:48:32;7.93;;;3.50;;
20511;SDS011;10414;52.074;5.126;2024-02-26T00:50:59;5.65;;;3.03;;
20511;SDS011;10414;52.074;5.126;2024-02-26T00:53:26;5.43;;;3.10;;
20511;SDS011;10414;52.074;5.126;2024-02-26T00:55:55;7.38;;;3.47;;
20511;SDS011;10414;52.074;5.126;2024-02-26T00:58:23;7.10;;;3.08;;
20511;SDS011;10414;52.074;5.126;2024-02-26T01:00:50;7.88;;;3.42;;
20511;SDS011;10414;52.074;5.126;2024-02-26T01:03:17;6.57;;;3.33;;
20511;SDS011;10414;52.074;5.126;2024-02-26T01:05:44;6.13;;;3.75;;
20511;SDS011;10414;52.074;5.126;2024-02-26T01:08:11;7.00;;;3.50;;
20511;SDS011;10414;52.074;5.126;2024-02-26T01:10:38;5.93;;;3.47;;
20511;SDS011;10414;52.074;5.126;2024-02-26T01:13:06;7.50;;;3.22;;
20511;SDS011;10414;52.074;5.126;2024-02-26T01:15:33;6.65;;;3.22;;
20511;SDS011;10414;52.074;5.126;2024-02-26T01:18:00;7.72;;;3.72;;
20511;SDS011;10414;52.074;5.126;2024-02-26T01:20:26;7.45;;;3.80;;
20511;SDS011;10414;52.074;5.126;2024-02-26T01:22:53;6.22;;;3.25;;
20511;SDS011;10414;52.074;5.126;2024-02-26T01:25:20;6.80;;;3.85;;
20511;SDS011;10414;52.074;5.126;2024-02-26T01:27:47;7.45;;;3.58;;
20511;SDS011;10414;52.074;5.126;2024-02-26T01:30:15;7.13;;;3.92;;
20511;SDS011;10414;52.074;5.126;2024-02-26T01:32:42;5.70;;;3.25;;
20511;SDS011;10414;52.074;5.126;2024-02-26T01:35:09;7.78;;;3.70;;
20511;SDS011;10414;52.074;5.126;2024-02-26T01:37:37;9.57;;;3.92;;
20511;SDS011;10414;52.074;5.126;2024-02-26T01:40:04;6.03;;;3.33;;
20511;SDS011;10414;52.074;5.126;2024-02-26T01:42:32;6.63;;;3.40;;
20511;SDS011;10414;52.074;5.126;2024-02-26T01:44:59;6.95;;;3.65;;
20511;SDS011;10414;52.074;5.126;2024-02-26T01:47:27;8.77;;;3.97;;
20511;SDS011;10414;52.074;5.126;2024-02-26T01:49:55;7.47;;;3.60;;
20511;SDS011;10414;52.074;5.126;2024-02-26T01:52:22;6.45;;;3.65;;
20511;SDS011;10414;52.074;5.126;2024-02-26T01:54:49;7.63;;;3.70;;
20511;SDS011;10414;52.074;5.126;2024-02-26T01:57:16;7.22;;;3.70;;
20511;SDS011;10414;52.074;5.126;2024-02-26T01:59:44;6.57;;;3.60;;
20511;SDS011;10414;52.074;5.126;2024-02-26T02:02:11;6.38;;;3.63;;
20511;SDS011;10414;52.074;5.126;2024-02-26T02:04:40;8.13;;;4.57;;
20511;SDS011;10414;52.074;5.126;2024-02-26T02:07:06;10.10;;;3.97;;
20511;SDS011;10414;52.074;5.126;2024-02-26T02:09:33;7.32;;;3.60;;
20511;SDS011;10414;52.074;5.126;2024-02-26T02:12:01;7.78;;;4.20;;
20511;SDS011;10414;52.074;5.126;2024-02-26T02:14:28;7.03;;;3.80;;
20511;SDS011;10414;52.074;5.126;2024-02-26T02:16:55;8.60;;;4.15;;
20511;SDS011;10414;52.074;5.126;2024-02-26T02:19:22;9.30;;;3.78;;
20511;SDS011;10414;52.074;5.126;2024-02-26T02:21:50;6.95;;;3.83;;
20511;SDS011;10414;52.074;5.126;2024-02-26T02:24:17;7.97;;;4.15;;
20511;SDS011;10414;52.074;5.126;2024-02-26T02:26:44;7.68;;;3.83;;
20511;SDS011;10414;52.074;5.126;2024-02-26T02:29:11;7.53;;;4.50;;
20511;SDS011;10414;52.074;5.126;2024-02-26T02:31:38;7.28;;;3.85;;
20511;SDS011;10414;52.074;5.126;2024-02-26T02:34:05;11.05;;;4.22;;
20511;SDS011;10414;52.074;5.126;2024-02-26T02:36:32;8.05;;;4.10;;
20511;SDS011;10414;52.074;5.126;2024-02-26T02:39:01;8.32;;;3.95;;
20511;SDS011;10414;52.074;5.126;2024-02-26T02:41:28;7.95;;;4.07;;
20511;SDS011;10414;52.074;5.126;2024-02-26T02:43:55;6.80;;;3.88;;
20511;SDS011;10414;52.074;5.126;2024-02-26T02:46:22;9.02;;;4.13;;
20511;SDS011;10414;52.074;5.126;2024-02-26T02:48:49;7.80;;;3.72;;
20511;SDS011;10414;52.074;5.126;2024-02-26T02:51:16;8.32;;;4.25;;
20511;SDS011;10414;52.074;5.126;2024-02-26T02:53:43;10.63;;;5.20;;
20511;SDS011;10414;52.074;5.126;2024-02-26T02:56:11;10.93;;;4.45;;
20511;SDS011;10414;52.074;5.126;2024-02-26T02:58:38;8.15;;;4.30;;
20511;SDS011;10414;52.074;5.126;2024-02-26T03:01:05;9.43;;;4.30;;
20511;SDS011;10414;52.074;5.126;2024-02-26T03:03:32;11.57;;;4.22;;
20511;SDS011;10414;52.074;5.126;2024-02-26T03:05:58;10.35;;;4.72;;
20511;SDS011;10414;52.074;5.126;2024-02-26T03:08:25;7.53;;;4.07;;
20511;SDS011;10414;52.074;5.126;2024-02-26T03:10:52;9.35;;;4.32;;
20511;SDS011;10414;52.074;5.126;2024-02-26T03:13:20;10.10;;;4.90;;
20511;SDS011;10414;52.074;5.126;2024-02-26T03:15:47;8.77;;;4.20;;
20511;SDS011;10414;52.074;5.126;2024-02-26T03:18:14;10.35;;;4.85;;
20511;SDS011;10414;52.074;5.126;2024-02-26T03:20:41;9.32;;;4.05;;
20511;SDS011;10414;52.074;5.126;2024-02-26T03:23:08;9.25;;;4.57;;
20511;SDS011;10414;52.074;5.126;2024-02-26T03:25:37;9.40;;;4.05;;
20511;SDS011;10414;52.074;5.126;2024-02-26T03:28:05;9.70;;;4.53;;
20511;SDS011;10414;52.074;5.126;2024-02-26T03:30:33;10.40;;;4.57;;
20511;SDS011;10414;52.074;5.126;2024-02-26T03:33:00;9.35;;;4.80;;
20511;SDS011;10414;52.074;5.126;2024-02-26T03:35:27;8.52;;;4.50;;
20511;SDS011;10414;52.074;5.126;2024-02-26T03:37:54;10.27;;;5.18;;
20511;SDS011;10414;52.074;5.126;2024-02-26T03:40:21;10.80;;;4.80;;
20511;SDS011;10414;52.074;5.126;2024-02-26T03:42:49;12.13;;;5.53;;
20511;SDS011;10414;52.074;5.126;2024-02-26T03:45:18;11.98;;;6.05;;
20511;SDS011;10414;52.074;5.126;2024-02-26T03:47:46;10.35;;;5.07;;
20511;SDS011;10414;52.074;5.126;2024-02-26T03:50:13;9.75;;;4.65;;
20511;SDS011;10414;52.074;5.126;2024-02-26T03:52:40;10.30;;;4.97;;
20511;SDS011;10414;52.074;5.126;2024-02-26T03:55:07;10.55;;;4.75;;
20511;SDS011;10414;52.074;5.126;2024-02-26T03:57:35;9.02;;;4.50;;
20511;SDS011;10414;52.074;5.126;2024-02-26T04:00:02;10.20;;;4.80;;
20511;SDS011;10414;52.074;5.126;2024-02-26T04:02:30;9.88;;;4.95;;
20511;SDS011;10414;52.074;5.126;2024-02-26T04:04:58;11.05;;;5.30;;
20511;SDS011;10414;52.074;5.126;2024-02-26T04:07:25;11.25;;;4.88;;
20511;SDS011;10414;52.074;5.126;2024-02-26T04:09:52;9.60;;;4.50;;
20511;SDS011;10414;52.074;5.126;2024-02-26T04:12:18;10.10;;;4.82;;
20511;SDS011;10414;52.074;5.126;2024-02-26T04:14:45;11.63;;;5.78;;
20511;SDS011;10414;52.074;5.126;2024-02-26T04:17:12;10.80;;;5.10;;
20511;SDS011;10414;52.074;5.126;2024-02-26T04:19:39;12.38;;;5.75;;
20511;SDS011;10414;52.074;5.126;2024-02-26T04:22:07;10.45;;;4.50;;
20511;SDS011;10414;52.074;5.126;2024-02-26T04:24:35;11.88;;;6.10;;
20511;SDS011;10414;52.074;5.126;2024-02-26T04:27:02;12.68;;;4.97;;
20511;SDS011;10414;52.074;5.126;2024-02-26T04:29:29;10.20;;;4.65;;
20511;SDS011;10414;52.074;5.126;2024-02-26T04:31:56;10.80;;;5.30;;
20511;SDS011;10414;52.074;5.126;2024-02-26T04:34:23;11.35;;;5.65;;
20511;SDS011;10414;52.074;5.126;2024-02-26T04:36:50;10.60;;;4.90;;
20511;SDS011;10414;52.074;5.126;2024-02-26T04:39:18;11.00;;;4.90;;
20511;SDS011;10414;52.074;5.126;2024-02-26T04:41:45;12.80;;;6.00;;
20511;SDS011;10414;52.074;5.126;2024-02-26T04:44:12;11.00;;;4.90;;
20511;SDS011;10414;52.074;5.126;2024-02-26T04:46:39;10.10;;;4.88;;
20511;SDS011;10414;52.074;5.126;2024-02-26T04:49:06;11.68;;;5.72;;
20511;SDS011;10414;52.074;5.126;2024-02-26T04:51:33;14.05;;;6.65;;
20511;SDS011;10414;52.074;5.126;2024-02-26T04:53:59;12.80;;;5.80;;
20511;SDS011;10414;52.074;5.126;2024-02-26T04:56:28;11.80;;;5.72;;
20511;SDS011;10414;52.074;5.126;2024-02-26T04:58:55;14.13;;;5.72;;
20511;SDS011;10414;52.074;5.126;2024-02-26T05:01:21;14.63;;;6.63;;
20511;SDS011;10414;52.074;5.126;2024-02-26T05:03:49;14.35;;;5.57;;
20511;SDS011;10414;52.074;5.126;2024-02-26T05:06:16;14.02;;;6.85;;
20511;SDS011;10414;52.074;5.126;2024-02-26T05:08:42;14.52;;;7.43;;
20511;SDS011;10414;52.074;5.126;2024-02-26T05:11:11;14.70;;;7.13;;
20511;SDS011;10414;52.074;5.126;2024-02-26T05:13:39;13.15;;;6.07;;
20511;SDS011;10414;52.074;5.126;2024-02-26T05:16:06;13.30;;;6.15;;
20511;SDS011;10414;52.074;5.126;2024-02-26T05:18:32;14.63;;;6.07;;
20511;SDS011;10414;52.074;5.126;2024-02-26T05:20:59;12.63;;;6.15;;
20511;SDS011;10414;52.074;5.126;2024-02-26T05:23:26;14.05;;;6.53;;
20511;SDS011;10414;52.074;5.126;2024-02-26T05:25:53;13.70;;;6.57;;
20511;SDS011;10414;52.074;5.126;2024-02-26T05:28:20;14.35;;;6.78;;
20511;SDS011;10414;52.074;5.126;2024-02-26T05:30:48;16.90;;;6.22;;
20511;SDS011;10414;52.074;5.126;2024-02-26T05:33:15;13.18;;;6.57;;
20511;SDS011;10414;52.074;5.126;2024-02-26T05:35:42;12.95;;;5.65;;
20511;SDS011;10414;52.074;5.126;2024-02-26T05:38:09;14.93;;;6.55;;
20511;SDS011;10414;52.074;5.126;2024-02-26T05:40:36;13.55;;;6.65;;
20511;SDS011;10414;52.074;5.126;2024-02-26T05:43:03;13.85;;;6.88;;
20511;SDS011;10414;52.074;5.126;2024-02-26T05:45:30;13.70;;;6.15;;
20511;SDS011;10414;52.074;5.126;2024-02-26T05:47:59;13.80;;;7.20;;
20511;SDS011;10414;52.074;5.126;2024-02-26T05:50:26;14.20;;;6.47;;
20511;SDS011;10414;52.074;5.126;2024-02-26T05:52:53;15.65;;;7.20;;
20511;SDS011;10414;52.074;5.126;2024-02-26T05:55:19;14.60;;;6.55;;
20511;SDS011;10414;52.074;5.126;2024-02-26T05:57:46;13.77;;;6.15;;
20511;SDS011;10414;52.074;5.126;2024-02-26T06:00:14;13.10;;;6.18;;
20511;SDS011;10414;52.074;5.126;2024-02-26T06:02:42;13.88;;;6.15;;
20511;SDS011;10414;52.074;5.126;2024-02-26T06:05:10;14.68;;;6.70;;
20511;SDS011;10414;52.074;5.126;2024-02-26T06:07:37;13.05;;;6.30;;
20511;SDS011;10414;52.074;5.126;2024-02-26T06:10:04;16.88;;;7.82;;
20511;SDS011;10414;52.074;5.126;2024-02-26T06:12:34;12.13;;;6.07;;
20511;SDS011;10414;52.074;5.126;2024-02-26T06:15:01;12.93;;;6.37;;
20511;SDS011;10414;52.074;5.126;2024-02-26T06:17:29;15.40;;;6.25;;
20511;SDS011;10414;52.074;5.126;2024-02-26T06:19:56;15.82;;;7.00;;
20511;SDS011;10414;52.074;5.126;2024-02-26T06:22:25;13.93;;;7.45;;
20511;SDS011;10414;52.074;5.126;2024-02-26T06:24:52;17.75;;;7.30;;
20511;SDS011;10414;52.074;5.126;2024-02-26T06:27:19;16.50;;;7.68;;
20511;SDS011;10414;52.074;5.126;2024-02-26T06:29:46;15.85;;;6.40;;
20511;SDS011;10414;52.074;5.126;2024-02-26T06:32:13;20.52;;;8.38;;
20511;SDS011;10414;52.074;5.126;2024-02-26T06:34:40;16.92;;;7.22;;
20511;SDS011;10414;52.074;5.126;2024-02-26T06:37:07;15.57;;;7.18;;
20511;SDS011;10414;52.074;5.126;2024-02-26T06:39:35;17.60;;;7.38;;
20511;SDS011;10414;52.074;5.126;2024-02-26T06:42:03;18.70;;;7.20;;
20511;SDS011;10414;52.074;5.126;2024-02-26T06:44:31;17.70;;;7.63;;
20511;SDS011;10414;52.074;5.126;2024-02-26T06:46:58;20.02;;;7.53;;
20511;SDS011;10414;52.074;5.126;2024-02-26T06:49:25;19.27;;;8.68;;
20511;SDS011;10414;52.074;5.126;2024-02-26T06:51:52;24.52;;;7.78;;
20511;SDS011;10414;52.074;5.126;2024-02-26T06:54:19;23.50;;;9.23;;
20511;SDS011;10414;52.074;5.126;2024-02-26T06:56:47;21.27;;;8.98;;
20511;SDS011;10414;52.074;5.126;2024-02-26T06:59:14;22.52;;;9.50;;
20511;SDS011;10414;52.074;5.126;2024-02-26T07:01:41;22.70;;;8.23;;
20511;SDS011;10414;52.074;5.126;2024-02-26T07:04:08;23.38;;;9.52;;
20511;SDS011;10414;52.074;5.126;2024-02-26T07:06:36;23.27;;;9.20;;
20511;SDS011;10414;52.074;5.126;2024-02-26T07:09:03;22.30;;;9.68;;
20511;SDS011;10414;52.074;5.126;2024-02-26T07:11:29;21.67;;;8.43;;
20511;SDS011;10414;52.074;5.126;2024-02-26T07:13:58;26.08;;;10.95;;
20511;SDS011;10414;52.074;5.126;2024-02-26T07:16:26;24.40;;;9.60;;
20511;SDS011;10414;52.074;5.126;2024-02-26T07:18:53;26.92;;;11.90;;
20511;SDS011;10414;52.074;5.126;2024-02-26T07:21:19;27.40;;;10.68;;
20511;SDS011;10414;52.074;5.126;2024-02-26T07:23:46;24.33;;;9.77;;
20511;SDS011;10414;52.074;5.126;2024-02-26T07:26:13;29.20;;;11.18;;
20511;SDS011;10414;52.074;5.126;2024-02-26T07:28:40;31.83;;;11.25;;
20511;SDS011;10414;52.074;5.126;2024-02-26T07:31:08;25.77;;;9.77;;
20511;SDS011;10414;52.074;5.126;2024-02-26T07:33:35;27.13;;;12.52;;
20511;SDS011;10414;52.074;5.126;2024-02-26T07:36:02;26.30;;;10.07;;
20511;SDS011;10414;52.074;5.126;2024-02-26T07:38:29;32.13;;;13.45;;
20511;SDS011;10414;52.074;5.126;2024-02-26T07:40:56;26.23;;;10.52;;
20511;SDS011;10414;52.074;5.126;2024-02-26T07:43:23;28.23;;;10.60;;
20511;SDS011;10414;52.074;5.126;2024-02-26T07:45:51;29.60;;;12.25;;
20511;SDS011;10414;52.074;5.126;2024-02-26T07:48:19;28.25;;;12.13;;
20511;SDS011;10414;52.074;5.126;2024-02-26T07:50:46;29.02;;;11.38;;
20511;SDS011;10414;52.074;5.126;2024-02-26T07:53:13;27.38;;;11.77;;
20511;SDS011;10414;52.074;5.126;2024-02-26T07:55:40;27.83;;;11.55;;
20511;SDS011;10414;52.074;5.126;2024-02-26T07:58:07;23.77;;;10.23;;
20511;SDS011;10414;52.074;5.126;2024-02-26T08:00:34;31.20;;;12.88;;
20511;SDS011;10414;52.074;5.126;2024-02-26T08:03:00;25.77;;;11.18;;
20511;SDS011;10414;52.074;5.126;2024-02-26T08:05:29;26.20;;;10.43;;
20511;SDS011;10414;52.074;5.126;2024-02-26T08:07:56;30.23;;;12.23;;
20511;SDS011;10414;52.074;5.126;2024-02-26T08:10:23;26.50;;;10.95;;
20511;SDS011;10414;52.074;5.126;2024-02-26T08:12:50;25.42;;;10.98;;
20511;SDS011;10414;52.074;5.126;2024-02-26T08:15:17;22.83;;;9.65;;
20511;SDS011;10414;52.074;5.126;2024-02-26T08:17:44;21.13;;;11.23;;
20511;SDS011;10414;52.074;5.126;2024-02-26T08:20:12;23.75;;;10.68;;
20511;SDS011;10414;52.074;5.126;2024-02-26T08:22:41;22.45;;;10.13;;
20511;SDS011;10414;52.074;5.126;2024-02-26T08:25:08;18.92;;;9.30;;
20511;SDS011;10414;52.074;5.126;2024-02-26T08:27:35;22.33;;;9.90;;
20511;SDS011;10414;52.074;5.126;2024-02-26T08:30:03;19.60;;;8.27;;
20511;SDS011;10414;52.074;5.126;2024-02-26T08:32:30;20.05;;;9.00;;
20511;SDS011;10414;52.074;5.126;2024-02-26T08:34:57;18.48;;;9.93;;
20511;SDS011;10414;52.074;5.126;2024-02-26T08:37:24;20.92;;;9.43;;
20511;SDS011;10414;52.074;5.126;2024-02-26T08:39:52;18.08;;;8.65;;
20511;SDS011;10414;52.074;5.126;2024-02-26T08:42:19;18.20;;;8.00;;
20511;SDS011;10414;52.074;5.126;2024-02-26T08:44:46;13.48;;;6.78;;
20511;SDS011;10414;52.074;5.126;2024-02-26T08:47:13;15.32;;;6.82;;
20511;SDS011;10414;52.074;5.126;2024-02-26T08:49:42;18.80;;;7.28;;
20511;SDS011;10414;52.074;5.126;2024-02-26T08:52:09;12.77;;;6.63;;
20511;SDS011;10414;52.074;5.126;2024-02-26T08:54:36;14.30;;;6.38;;
20511;SDS011;10414;52.074;5.126;2024-02-26T08:57:04;14.23;;;6.82;;
20511;SDS011;10414;52.074;5.126;2024-02-26T08:59:31;12.27;;;5.65;;
20511;SDS011;10414;52.074;5.126;2024-02-26T09:01:58;14.85;;;7.25;;
20511;SDS011;10414;52.074;5.126;2024-02-26T09:04:25;15.98;;;7.70;;
20511;SDS011;10414;52.074;5.126;2024-02-26T09:06:52;14.10;;;6.60;;
20511;SDS011;10414;52.074;5.126;2024-02-26T09:09:19;13.18;;;6.28;;
20511;SDS011;10414;52.074;5.126;2024-02-26T09:11:47;13.90;;;6.00;;
20511;SDS011;10414;52.074;5.126;2024-02-26T09:14:18;12.40;;;5.82;;
20511;SDS011;10414;52.074;5.126;2024-02-26T09:16:44;13.13;;;6.88;;
20511;SDS011;10414;52.074;5.126;2024-02-26T09:19:13;15.18;;;7.15;;
20511;SDS011;10414;52.074;5.126;2024-02-26T09:21:41;11.63;;;5.13;;
20511;SDS011;10414;52.074;5.126;2024-02-26T09:24:09;13.40;;;5.72;;
20511;SDS011;10414;52.074;5.126;2024-02-26T09:26:36;11.45;;;5.28;;
20511;SDS011;10414;52.074;5.126;2024-02-26T09:29:03;10.95;;;5.38;;
20511;SDS011;10414;52.074;5.126;2024-02-26T09:31:32;15.20;;;5.40;;
20511;SDS011;10414;52.074;5.126;2024-02-26T09:33:59;13.80;;;6.07;;
20511;SDS011;10414;52.074;5.126;2024-02-26T09:36:26;15.13;;;4.95;;
20511;SDS011;10414;52.074;5.126;2024-02-26T09:38:52;10.23;;;4.78;;
20511;SDS011;10414;52.074;5.126;2024-02-26T09:41:19;9.57;;;4.65;;
20511;SDS011;10414;52.074;5.126;2024-02-26T09:43:47;13.30;;;5.00;;
20511;SDS011;10414;52.074;5.126;2024-02-26T09:46:18;12.57;;;5.25;;
20511;SDS011;10414;52.074;5.126;2024-02-26T09:48:47;12.27;;;4.70;;
20511;SDS011;10414;52.074;5.126;2024-02-26T09:51:14;10.32;;;4.53;;
20511;SDS011;10414;52.074;5.126;2024-02-26T09:53:43;9.55;;;4.82;;
20511;SDS011;10414;52.074;5.126;2024-02-26T09:56:11;10.25;;;5.00;;
20511;SDS011;10414;52.074;5.126;2024-02-26T09:58:39;9.35;;;4.22;;
20511;SDS011;10414;52.074;5.126;2024-02-26T10:01:08;15.27;;;5.07;;
20511;SDS011;10414;52.074;5.126;2024-02-26T10:03:41;10.55;;;5.20;;
20511;SDS011;10414;52.074;5.126;2024-02-26T10:06:11;9.63;;;4.47;;
20511;SDS011;10414;52.074;5.126;2024-02-26T10:08:38;11.30;;;4.97;;
20511;SDS011;10414;52.074;5.126;2024-02-26T10:11:06;11.13;;;4.80;;
20511;SDS011;10414;52.074;5.126;2024-02-26T10:13:34;10.40;;;4.32;;
20511;SDS011;10414;52.074;5.126;2024-02-26T10:16:01;11.55;;;4.82;;
20511;SDS011;10414;52.074;5.126;2024-02-26T10:18:44;8.60;;;3.88;;
20511;SDS011;10414;52.074;5.126;2024-02-26T10:21:13;9.82;;;4.18;;
20511;SDS011;10414;52.074;5.126;2024-02-26T10:23:43;11.82;;;4.88;;
20511;SDS011;10414;52.074;5.126;2024-02-26T10:26:10;10.93;;;4.57;;
20511;SDS011;10414;52.074;5.126;2024-02-26T10:28:38;9.77;;;3.97;;
20511;SDS011;10414;52.074;5.126;2024-02-26T10:31:05;10.80;;;4.68;;
20511;SDS011;10414;52.074;5.126;2024-02-26T10:33:33;12.32;;;5.07;;
20511;SDS011;10414;52.074;5.126;2024-02-26T10:36:00;10.05;;;4.25;;
20511;SDS011;10414;52.074;5.126;2024-02-26T10:38:29;11.32;;;4.30;;
20511;SDS011;10414;52.074;5.126;2024-02-26T10:40:56;11.85;;;5.35;;
20511;SDS011;10414;52.074;5.126;2024-02-26T10:43:22;9.98;;;3.97;;
20511;SDS011;10414;52.074;5.126;2024-02-26T10:45:51;10.15;;;4.88;;
20511;SDS011;10414;52.074;5.126;2024-02-26T10:48:18;12.43;;;5.25;;
20511;SDS011;10414;52.074;5.126;2024-02-26T10:50:45;10.70;;;4.22;;
20511;SDS011;10414;52.074;5.126;2024-02-26T10:53:15;12.80;;;5.63;;
20511;SDS011;10414;52.074;5.126;2024-02-26T10:55:48;12.20;;;4.68;;
20511;SDS011;10414;52.074;5.126;2024-02-26T10:58:18;10.50;;;5.07;;
20511;SDS011;10414;52.074;5.126;2024-02-26T11:00:46;11.40;;;4.88;;
20511;SDS011;10414;52.074;5.126;2024-02-26T11:03:15;10.93;;;4.47;;
20511;SDS011;10414;52.074;5.126;2024-02-26T11:05:45;10.43;;;4.53;;
20511;SDS011;10414;52.074;5.126;2024-02-26T11:08:13;9.70;;;4.53;;
20511;SDS011;10414;52.074;5.126;2024-02-26T11:10:41;11.25;;;5.47;;
20511;SDS011;10414;52.074;5.126;2024-02-26T11:13:10;11.70;;;4.95;;
20511;SDS011;10414;52.074;5.126;2024-02-26T11:15:40;10.00;;;4.35;;
20511;SDS011;10414;52.074;5.126;2024-02-26T11:18:08;12.73;;;4.85;;
20511;SDS011;10414;52.074;5.126;2024-02-26T11:20:35;11.55;;;5.10;;
20511;SDS011;10414;52.074;5.126;2024-02-26T11:23:06;11.23;;;4.50;;
20511;SDS011;10414;52.074;5.126;2024-02-26T11:25:34;10.27;;;4.65;;
20511;SDS011;10414;52.074;5.126;2024-02-26T11:28:03;11.52;;;4.85;;
20511;SDS011;10414;52.074;5.126;2024-02-26T11:30:34;10.60;;;4.30;;
20511;SDS011;10414;52.074;5.126;2024-02-26T11:33:04;14.52;;;5.07;;
20511;SDS011;10414;52.074;5.126;2024-02-26T11:35:33;10.97;;;3.80;;
20511;SDS011;10414;52.074;5.126;2024-02-26T11:38:03;9.65;;;4.20;;
20511;SDS011;10414;52.074;5.126;2024-02-26T11:40:31;12.75;;;4.95;;
20511;SDS011;10414;52.074;5.126;2024-02-26T11:42:59;8.85;;;4.00;;
20511;SDS011;10414;52.074;5.126;2024-02-26T11:50:47;9.65;;;4.40;;
20511;SDS011;10414;52.074;5.126;2024-02-26T11:53:24;8.70;;;4.18;;
20511;SDS011;10414;52.074;5.126;2024-02-26T11:58:39;10.52;;;5.22;;
20511;SDS011;10414;52.074;5.126;2024-02-26T12:04:05;9.05;;;4.43;;
20511;SDS011;10414;52.074;5.126;2024-02-26T12:06:40;10.80;;;5.03;;
20511;SDS011;10414;52.074;5.126;2024-02-26T12:09:08;9.88;;;5.10;;
20511;SDS011;10414;52.074;5.126;2024-02-26T12:11:37;10.73;;;4.90;;
20511;SDS011;10414;52.074;5.126;2024-02-26T12:14:05;9.27;;;4.82;;
20511;SDS011;10414;52.074;5.126;2024-02-26T12:16:37;11.10;;;4.80;;
20511;SDS011;10414;52.074;5.126;2024-02-26T12:19:08;11.02;;;4.80;;
20511;SDS011;10414;52.074;5.126;2024-02-26T12:21:36;12.07;;;4.53;;
20511;SDS011;10414;52.074;5.126;2024-02-26T12:24:07;12.38;;;5.03;;
20511;SDS011;10414;52.074;5.126;2024-02-26T12:26:38;10.20;;;5.35;;
20511;SDS011;10414;52.074;5.126;2024-02-26T12:29:05;9.63;;;4.53;;
20511;SDS011;10414;52.074;5.126;2024-02-26T12:31:33;11.05;;;4.07;;
20511;SDS011;10414;52.074;5.126;2024-02-26T12:34:03;9.48;;;4.55;;
20511;SDS011;10414;52.074;5.126;2024-02-26T12:36:31;12.50;;;4.53;;
20511;SDS011;10414;52.074;5.126;2024-02-26T12:38:59;10.63;;;4.22;;
20511;SDS011;10414;52.074;5.126;2024-02-26T12:41:27;9.68;;;4.25;;
20511;SDS011;10414;52.074;5.126;2024-02-26T12:43:55;10.05;;;4.55;;
20511;SDS011;10414;52.074;5.126;2024-02-26T12:46:22;9.07;;;4.20;;
20511;SDS011;10414;52.074;5.126;2024-02-26T12:48:49;9.93;;;4.72;;
20511;SDS011;10414;52.074;5.126;2024-02-26T12:51:17;11.85;;;5.75;;
20511;SDS011;10414;52.074;5.126;2024-02-26T12:53:44;9.30;;;4.53;;
20511;SDS011;10414;52.074;5.126;2024-02-26T12:56:12;9.90;;;4.35;;
20511;SDS011;10414;52.074;5.126;2024-02-26T12:58:39;10.23;;;4.60;;
20511;SDS011;10414;52.074;5.126;2024-02-26T13:01:06;8.52;;;4.18;;
20511;SDS011;10414;52.074;5.126;2024-02-26T13:03:39;8.60;;;4.05;;
20511;SDS011;10414;52.074;5.126;2024-02-26T13:06:07;8.95;;;4.05;;
20511;SDS011;10414;52.074;5.126;2024-02-26T13:08:36;11.68;;;4.15;;
20511;SDS011;10414;52.074;5.126;2024-02-26T13:11:03;7.95;;;4.10;;
20511;SDS011;10414;52.074;5.126;2024-02-26T13:13:30;8.25;;;3.65;;
20511;SDS011;10414;52.074;5.126;2024-02-26T13:16:01;9.18;;;3.88;;
20511;SDS011;10414;52.074;5.126;2024-02-26T13:18:29;8.55;;;4.13;;
20511;SDS011;10414;52.074;5.126;2024-02-26T13:21:06;7.40;;;3.78;;
20511;SDS011;10414;52.074;5.126;2024-02-26T13:23:34;8.27;;;4.10;;
20511;SDS011;10414;52.074;5.126;2024-02-26T13:26:02;8.00;;;3.80;;
20511;SDS011;10414;52.074;5.126;2024-02-26T13:28:29;8.88;;;3.70;;
20511;SDS011;10414;52.074;5.126;2024-02-26T13:30:57;9.00;;;4.18;;
20511;SDS011;10414;52.074;5.126;2024-02-26T13:33:26;10.13;;;4.53;;
20511;SDS011;10414;52.074;5.126;2024-02-26T13:35:54;7.90;;;3.97;;
20511;SDS011;10414;52.074;5.126;2024-02-26T13:38:21;8.30;;;4.00;;
20511;SDS011;10414;52.074;5.126;2024-02-26T13:40:48;8.45;;;3.38;;
20511;SDS011;10414;52.074;5.126;2024-02-26T13:43:17;7.65;;;3.53;;
20511;SDS011;10414;52.074;5.126;2024-02-26T13:45:45;7.45;;;3.70;;
20511;SDS011;10414;52.074;5.126;2024-02-26T13:48:12;8.85;;;4.15;;
20511;SDS011;10414;52.074;5.126;2024-02-26T13:50:40;9.00;;;4.30;;
20511;SDS011;10414;52.074;5.126;2024-02-26T13:53:10;7.68;;;3.65;;
20511;SDS011;10414;52.074;5.126;2024-02-26T13:55:37;8.13;;;3.80;;
20511;SDS011;10414;52.074;5.126;2024-02-26T13:58:07;7.82;;;3.25;;
20511;SDS011;10414;52.074;5.126;2024-02-26T14:00:36;9.07;;;3.88;;
20511;SDS011;10414;52.074;5.126;2024-02-26T14:03:03;6.22;;;3.03;;
20511;SDS011;10414;52.074;5.126;2024-02-26T14:05:30;7.22;;;3.47;;
20511;SDS011;10414;52.074;5.126;2024-02-26T14:07:57;8.48;;;3.72;;
20511;SDS011;10414;52.074;5.126;2024-02-26T14:10:24;8.32;;;3.85;;
20511;SDS011;10414;52.074;5.126;2024-02-26T14:12:51;8.93;;;4.22;;
20511;SDS011;10414;52.074;5.126;2024-02-26T14:15:18;7.43;;;4.05;;
20511;SDS011;10414;52.074;5.126;2024-02-26T14:17:46;7.45;;;3.65;;
20511;SDS011;10414;52.074;5.126;2024-02-26T14:20:18;9.23;;;3.75;;
20511;SDS011;10414;52.074;5.126;2024-02-26T14:22:45;9.00;;;4.10;;
20511;SDS011;10414;52.074;5.126;2024-02-26T14:25:12;8.68;;;3.97;;
20511;SDS011;10414;52.074;5.126;2024-02-26T14:27:39;6.85;;;3.47;;
20511;SDS011;10414;52.074;5.126;2024-02-26T14:30:06;5.72;;;2.75;;
20511;SDS011;10414;52.074;5.126;2024-02-26T14:32:34;7.38;;;3.47;;
20511;SDS011;10414;52.074;5.126;2024-02-26T14:35:04;6.63;;;3.55;;
20511;SDS011;10414;52.074;5.126;2024-02-26T14:37:33;8.60;;;3.50;;
20511;SDS011;10414;52.074;5.126;2024-02-26T14:40:00;7.25;;;3.28;;
20511;SDS011;10414;52.074;5.126;2024-02-26T14:42:27;8.63;;;3.47;;
20511;SDS011;10414;52.074;5.126;2024-02-26T14:44:54;6.00;;;2.83;;
20511;SDS011;10414;52.074;5.126;2024-02-26T14:47:21;5.95;;;2.90;;
20511;SDS011;10414;52.074;5.126;2024-02-26T14:49:48;7.57;;;3.20;;
20511;SDS011;10414;52.074;5.126;2024-02-26T14:52:18;5.88;;;2.78;;